sensor_id;sensor_type;location;lat;lon;timestamp;P1;durP1;ratioP1;P2;durP2;ratioP2
53269;SDS011;39159;45.634;9.420;2024-02-04T00:01:17;19.88;;;12.65;;
53269;SDS011;39159;45.634;9.420;2024-02-04T00:03:42;22.92;;;13.82;;
53269;SDS011;39159;45.634;9.420;2024-02-04T00:06:08;21.67;;;14.35;;
53269;SDS011;39159;45.634;9.420;2024-02-04T00:08:33;22.63;;;13.35;;
53269;SDS011;39159;45.634;9.420;2024-02-04T00:10:58;21.10;;;14.32;;
53269;SDS011;39159;45.634;9.420;2024-02-04T00:13:24;23.40;;;14.02;;
53269;SDS011;39159;45.634;9.420;2024-02-04T00:15:49;21.33;;;14.00;;
53269;SDS011;39159;45.634;9.420;2024-02-04T00:18:15;19.83;;;12.27;;
53269;SDS011;39159;45.634;9.420;2024-02-04T00:20:40;23.58;;;15.10;;
53269;SDS011;39159;45.634;9.420;2024-02-04T00:23:06;23.38;;;13.93;;
53269;SDS011;39159;45.634;9.420;2024-02-04T00:25:31;24.45;;;14.40;;
53269;SDS011;39159;45.634;9.420;2024-02-04T00:27:56;22.52;;;14.45;;
53269;SDS011;39159;45.634;9.420;2024-02-04T00:30:22;26.42;;;14.32;;
53269;SDS011;39159;45.634;9.420;2024-02-04T00:32:47;21.48;;;14.48;;
53269;SDS011;39159;45.634;9.420;2024-02-04T00:35:12;21.35;;;13.75;;
53269;SDS011;39159;45.634;9.420;2024-02-04T00:37:38;24.90;;;14.05;;
53269;SDS011;39159;45.634;9.420;2024-02-04T00:40:03;24.13;;;14.10;;
53269;SDS011;39159;45.634;9.420;2024-02-04T00:42:29;24.88;;;14.05;;
53269;SDS011;39159;45.634;9.420;2024-02-04T00:44:54;19.77;;;13.25;;
53269;SDS011;39159;45.634;9.420;2024-02-04T00:47:20;21.95;;;13.90;;
53269;SDS011;39159;45.634;9.420;2024-02-04T00:49:45;19.63;;;12.95;;
53269;SDS011;39159;45.634;9.420;2024-02-04T00:52:11;23.77;;;13.45;;
53269;SDS011;39159;45.634;9.420;2024-02-04T00:54:36;22.27;;;13.13;;
53269;SDS011;39159;45.634;9.420;2024-02-04T00:57:02;16.75;;;11.40;;
53269;SDS011;39159;45.634;9.420;2024-02-04T00:59:27;19.77;;;12.85;;
53269;SDS011;39159;45.634;9.420;2024-02-04T01:01:52;21.20;;;13.18;;
53269;SDS011;39159;45.634;9.420;2024-02-04T01:04:18;22.33;;;13.85;;
53269;SDS011;39159;45.634;9.420;2024-02-04T01:06:43;25.65;;;14.07;;
53269;SDS011;39159;45.634;9.420;2024-02-04T01:09:08;25.15;;;14.95;;
53269;SDS011;39159;45.634;9.420;2024-02-04T01:11:34;31.75;;;16.33;;
53269;SDS011;39159;45.634;9.420;2024-02-04T01:13:59;27.17;;;16.15;;
53269;SDS011;39159;45.634;9.420;2024-02-04T01:16:25;28.48;;;17.10;;
53269;SDS011;39159;45.634;9.420;2024-02-04T01:18:51;26.52;;;17.75;;
53269;SDS011;39159;45.634;9.420;2024-02-04T01:21:17;27.98;;;16.23;;
53269;SDS011;39159;45.634;9.420;2024-02-04T01:23:42;27.65;;;15.63;;
53269;SDS011;39159;45.634;9.420;2024-02-04T01:26:07;26.35;;;17.38;;
53269;SDS011;39159;45.634;9.420;2024-02-04T01:28:33;28.15;;;17.10;;
53269;SDS011;39159;45.634;9.420;2024-02-04T01:30:58;28.27;;;17.73;;
53269;SDS011;39159;45.634;9.420;2024-02-04T01:33:24;32.45;;;18.25;;
53269;SDS011;39159;45.634;9.420;2024-02-04T01:35:49;31.95;;;18.73;;
53269;SDS011;39159;45.634;9.420;2024-02-04T01:38:15;32.30;;;18.48;;
53269;SDS011;39159;45.634;9.420;2024-02-04T01:40:41;28.67;;;18.38;;
53269;SDS011;39159;45.634;9.420;2024-02-04T01:43:06;34.47;;;19.77;;
53269;SDS011;39159;45.634;9.420;2024-02-04T01:45:32;29.02;;;18.08;;
53269;SDS011;39159;45.634;9.420;2024-02-04T01:47:57;31.88;;;19.67;;
53269;SDS011;39159;45.634;9.420;2024-02-04T01:50:23;31.67;;;18.63;;
53269;SDS011;39159;45.634;9.420;2024-02-04T01:52:49;30.75;;;19.38;;
53269;SDS011;39159;45.634;9.420;2024-02-04T01:55:17;32.85;;;21.05;;
53269;SDS011;39159;45.634;9.420;2024-02-04T01:57:44;35.22;;;21.17;;
53269;SDS011;39159;45.634;9.420;2024-02-04T02:00:09;33.22;;;21.45;;
53269;SDS011;39159;45.634;9.420;2024-02-04T02:02:38;30.95;;;19.13;;
53269;SDS011;39159;45.634;9.420;2024-02-04T02:05:05;29.75;;;18.45;;
53269;SDS011;39159;45.634;9.420;2024-02-04T02:07:30;29.35;;;18.08;;
53269;SDS011;39159;45.634;9.420;2024-02-04T02:09:55;30.30;;;18.90;;
53269;SDS011;39159;45.634;9.420;2024-02-04T02:12:25;30.27;;;18.52;;
53269;SDS011;39159;45.634;9.420;2024-02-04T02:14:59;27.77;;;18.20;;
53269;SDS011;39159;45.634;9.420;2024-02-04T02:17:38;28.92;;;17.95;;
53269;SDS011;39159;45.634;9.420;2024-02-04T02:20:15;27.23;;;16.13;;
53269;SDS011;39159;45.634;9.420;2024-02-04T02:25:47;28.58;;;17.40;;
53269;SDS011;39159;45.634;9.420;2024-02-04T02:28:14;29.42;;;15.93;;
53269;SDS011;39159;45.634;9.420;2024-02-04T02:30:40;24.92;;;15.48;;
53269;SDS011;39159;45.634;9.420;2024-02-04T02:33:05;24.52;;;15.45;;
53269;SDS011;39159;45.634;9.420;2024-02-04T02:35:32;32.72;;;15.85;;
53269;SDS011;39159;45.634;9.420;2024-02-04T02:40:44;27.45;;;15.85;;
53269;SDS011;39159;45.634;9.420;2024-02-04T02:43:12;22.40;;;14.90;;
53269;SDS011;39159;45.634;9.420;2024-02-04T02:45:39;25.30;;;15.88;;
53269;SDS011;39159;45.634;9.420;2024-02-04T02:48:07;23.33;;;14.38;;
53269;SDS011;39159;45.634;9.420;2024-02-04T02:50:34;23.75;;;14.55;;
53269;SDS011;39159;45.634;9.420;2024-02-04T02:53:00;24.00;;;15.18;;
53269;SDS011;39159;45.634;9.420;2024-02-04T02:55:25;25.45;;;15.93;;
53269;SDS011;39159;45.634;9.420;2024-02-04T02:57:51;24.60;;;16.48;;
53269;SDS011;39159;45.634;9.420;2024-02-04T03:00:16;26.88;;;15.55;;
53269;SDS011;39159;45.634;9.420;2024-02-04T03:02:42;22.73;;;14.35;;
53269;SDS011;39159;45.634;9.420;2024-02-04T03:05:07;25.83;;;15.55;;
53269;SDS011;39159;45.634;9.420;2024-02-04T03:07:33;24.92;;;15.48;;
53269;SDS011;39159;45.634;9.420;2024-02-04T03:09:58;28.65;;;16.45;;
53269;SDS011;39159;45.634;9.420;2024-02-04T03:12:24;26.92;;;15.82;;
53269;SDS011;39159;45.634;9.420;2024-02-04T03:14:49;27.45;;;16.45;;
53269;SDS011;39159;45.634;9.420;2024-02-04T03:17:14;25.42;;;15.93;;
53269;SDS011;39159;45.634;9.420;2024-02-04T03:19:40;23.60;;;15.45;;
53269;SDS011;39159;45.634;9.420;2024-02-04T03:22:05;24.23;;;15.20;;
53269;SDS011;39159;45.634;9.420;2024-02-04T03:24:31;25.77;;;15.40;;
53269;SDS011;39159;45.634;9.420;2024-02-04T03:26:56;27.50;;;16.90;;
53269;SDS011;39159;45.634;9.420;2024-02-04T03:29:22;28.67;;;17.58;;
53269;SDS011;39159;45.634;9.420;2024-02-04T03:31:48;31.80;;;18.55;;
53269;SDS011;39159;45.634;9.420;2024-02-04T03:34:14;32.55;;;18.23;;
53269;SDS011;39159;45.634;9.420;2024-02-04T03:36:39;30.35;;;18.15;;
53269;SDS011;39159;45.634;9.420;2024-02-04T03:39:05;30.15;;;19.15;;
53269;SDS011;39159;45.634;9.420;2024-02-04T03:41:30;33.42;;;19.25;;
53269;SDS011;39159;45.634;9.420;2024-02-04T03:43:55;31.17;;;18.88;;
53269;SDS011;39159;45.634;9.420;2024-02-04T03:46:21;30.92;;;18.55;;
53269;SDS011;39159;45.634;9.420;2024-02-04T03:48:46;32.88;;;19.83;;
53269;SDS011;39159;45.634;9.420;2024-02-04T03:51:18;34.92;;;18.90;;
53269;SDS011;39159;45.634;9.420;2024-02-04T03:53:44;34.35;;;19.67;;
53269;SDS011;39159;45.634;9.420;2024-02-04T03:56:10;28.33;;;17.60;;
53269;SDS011;39159;45.634;9.420;2024-02-04T03:58:36;27.88;;;17.67;;
53269;SDS011;39159;45.634;9.420;2024-02-04T04:01:01;28.83;;;16.88;;
53269;SDS011;39159;45.634;9.420;2024-02-04T04:03:27;30.42;;;17.88;;
53269;SDS011;39159;45.634;9.420;2024-02-04T04:05:55;31.95;;;17.70;;
53269;SDS011;39159;45.634;9.420;2024-02-04T04:08:21;27.00;;;17.15;;
53269;SDS011;39159;45.634;9.420;2024-02-04T04:10:46;29.35;;;17.85;;
53269;SDS011;39159;45.634;9.420;2024-02-04T04:13:12;28.42;;;16.45;;
53269;SDS011;39159;45.634;9.420;2024-02-04T04:15:38;35.38;;;19.73;;
53269;SDS011;39159;45.634;9.420;2024-02-04T04:18:04;34.85;;;19.00;;
53269;SDS011;39159;45.634;9.420;2024-02-04T04:20:30;30.65;;;17.75;;
53269;SDS011;39159;45.634;9.420;2024-02-04T04:22:55;29.63;;;18.42;;
53269;SDS011;39159;45.634;9.420;2024-02-04T04:25:20;30.40;;;17.52;;
53269;SDS011;39159;45.634;9.420;2024-02-04T04:27:46;29.63;;;18.00;;
53269;SDS011;39159;45.634;9.420;2024-02-04T04:30:11;34.42;;;20.85;;
53269;SDS011;39159;45.634;9.420;2024-02-04T04:32:37;30.25;;;18.83;;
53269;SDS011;39159;45.634;9.420;2024-02-04T04:35:02;35.50;;;21.23;;
53269;SDS011;39159;45.634;9.420;2024-02-04T04:37:28;32.78;;;20.10;;
53269;SDS011;39159;45.634;9.420;2024-02-04T04:39:53;39.20;;;22.02;;
53269;SDS011;39159;45.634;9.420;2024-02-04T04:42:18;39.72;;;23.08;;
53269;SDS011;39159;45.634;9.420;2024-02-04T04:44:44;41.35;;;24.42;;
53269;SDS011;39159;45.634;9.420;2024-02-04T04:47:09;42.20;;;23.98;;
53269;SDS011;39159;45.634;9.420;2024-02-04T04:49:35;38.05;;;23.15;;
53269;SDS011;39159;45.634;9.420;2024-02-04T04:52:00;40.08;;;23.05;;
53269;SDS011;39159;45.634;9.420;2024-02-04T04:54:27;39.80;;;22.83;;
53269;SDS011;39159;45.634;9.420;2024-02-04T04:56:52;42.20;;;24.80;;
53269;SDS011;39159;45.634;9.420;2024-02-04T04:59:18;49.20;;;26.25;;
53269;SDS011;39159;45.634;9.420;2024-02-04T05:01:49;47.95;;;26.88;;
53269;SDS011;39159;45.634;9.420;2024-02-04T05:04:16;46.55;;;27.08;;
53269;SDS011;39159;45.634;9.420;2024-02-04T05:06:43;50.55;;;27.58;;
53269;SDS011;39159;45.634;9.420;2024-02-04T05:09:09;49.67;;;27.92;;
53269;SDS011;39159;45.634;9.420;2024-02-04T05:11:34;52.55;;;28.55;;
53269;SDS011;39159;45.634;9.420;2024-02-04T05:13:59;58.38;;;31.20;;
53269;SDS011;39159;45.634;9.420;2024-02-04T05:16:25;54.22;;;30.08;;
53269;SDS011;39159;45.634;9.420;2024-02-04T05:18:50;55.13;;;29.58;;
53269;SDS011;39159;45.634;9.420;2024-02-04T05:21:15;58.95;;;30.52;;
53269;SDS011;39159;45.634;9.420;2024-02-04T05:23:41;58.85;;;30.77;;
53269;SDS011;39159;45.634;9.420;2024-02-04T05:26:06;52.92;;;30.65;;
53269;SDS011;39159;45.634;9.420;2024-02-04T05:28:32;49.70;;;29.33;;
53269;SDS011;39159;45.634;9.420;2024-02-04T05:30:58;50.35;;;28.55;;
53269;SDS011;39159;45.634;9.420;2024-02-04T05:33:23;62.53;;;31.40;;
53269;SDS011;39159;45.634;9.420;2024-02-04T05:35:49;58.20;;;31.40;;
53269;SDS011;39159;45.634;9.420;2024-02-04T05:38:16;56.25;;;30.92;;
53269;SDS011;39159;45.634;9.420;2024-02-04T05:40:41;60.08;;;31.13;;
53269;SDS011;39159;45.634;9.420;2024-02-04T05:43:07;61.28;;;32.08;;
53269;SDS011;39159;45.634;9.420;2024-02-04T05:45:35;58.67;;;32.50;;
53269;SDS011;39159;45.634;9.420;2024-02-04T05:48:00;57.50;;;31.83;;
53269;SDS011;39159;45.634;9.420;2024-02-04T05:50:26;57.47;;;31.13;;
53269;SDS011;39159;45.634;9.420;2024-02-04T05:52:51;62.65;;;32.50;;
53269;SDS011;39159;45.634;9.420;2024-02-04T05:55:16;56.85;;;29.35;;
53269;SDS011;39159;45.634;9.420;2024-02-04T05:57:42;50.83;;;29.67;;
53269;SDS011;39159;45.634;9.420;2024-02-04T06:00:07;56.03;;;29.92;;
53269;SDS011;39159;45.634;9.420;2024-02-04T06:02:35;49.30;;;27.58;;
53269;SDS011;39159;45.634;9.420;2024-02-04T06:05:01;47.30;;;26.77;;
53269;SDS011;39159;45.634;9.420;2024-02-04T06:07:26;45.42;;;25.83;;
53269;SDS011;39159;45.634;9.420;2024-02-04T06:09:52;48.92;;;27.25;;
53269;SDS011;39159;45.634;9.420;2024-02-04T06:12:17;52.35;;;27.27;;
53269;SDS011;39159;45.634;9.420;2024-02-04T06:14:42;48.20;;;27.70;;
53269;SDS011;39159;45.634;9.420;2024-02-04T06:17:08;51.17;;;29.10;;
53269;SDS011;39159;45.634;9.420;2024-02-04T06:19:34;47.42;;;27.45;;
53269;SDS011;39159;45.634;9.420;2024-02-04T06:22:00;44.72;;;26.27;;
53269;SDS011;39159;45.634;9.420;2024-02-04T06:24:26;51.95;;;26.60;;
53269;SDS011;39159;45.634;9.420;2024-02-04T06:26:51;49.80;;;26.88;;
53269;SDS011;39159;45.634;9.420;2024-02-04T06:29:16;46.22;;;27.00;;
53269;SDS011;39159;45.634;9.420;2024-02-04T06:31:45;44.58;;;25.50;;
53269;SDS011;39159;45.634;9.420;2024-02-04T06:34:11;45.58;;;25.40;;
53269;SDS011;39159;45.634;9.420;2024-02-04T06:36:36;45.60;;;25.48;;
53269;SDS011;39159;45.634;9.420;2024-02-04T06:39:02;44.88;;;26.48;;
53269;SDS011;39159;45.634;9.420;2024-02-04T06:41:27;42.53;;;24.25;;
53269;SDS011;39159;45.634;9.420;2024-02-04T06:43:53;41.05;;;24.08;;
53269;SDS011;39159;45.634;9.420;2024-02-04T06:46:24;41.20;;;23.42;;
53269;SDS011;39159;45.634;9.420;2024-02-04T06:48:51;43.10;;;26.10;;
53269;SDS011;39159;45.634;9.420;2024-02-04T06:51:16;44.95;;;26.33;;
53269;SDS011;39159;45.634;9.420;2024-02-04T06:53:41;44.22;;;25.80;;
53269;SDS011;39159;45.634;9.420;2024-02-04T06:56:07;43.17;;;24.38;;
53269;SDS011;39159;45.634;9.420;2024-02-04T06:58:32;47.17;;;27.42;;
53269;SDS011;39159;45.634;9.420;2024-02-04T07:00:57;41.20;;;25.05;;
53269;SDS011;39159;45.634;9.420;2024-02-04T07:03:23;44.05;;;26.02;;
53269;SDS011;39159;45.634;9.420;2024-02-04T07:05:49;45.72;;;26.70;;
53269;SDS011;39159;45.634;9.420;2024-02-04T07:08:14;45.50;;;25.88;;
53269;SDS011;39159;45.634;9.420;2024-02-04T07:10:39;43.42;;;25.40;;
53269;SDS011;39159;45.634;9.420;2024-02-04T07:13:05;43.08;;;25.63;;
53269;SDS011;39159;45.634;9.420;2024-02-04T07:15:31;43.30;;;24.33;;
53269;SDS011;39159;45.634;9.420;2024-02-04T07:17:56;39.75;;;23.98;;
53269;SDS011;39159;45.634;9.420;2024-02-04T07:20:21;42.75;;;24.98;;
53269;SDS011;39159;45.634;9.420;2024-02-04T07:22:47;40.53;;;25.42;;
53269;SDS011;39159;45.634;9.420;2024-02-04T07:25:12;45.92;;;25.52;;
53269;SDS011;39159;45.634;9.420;2024-02-04T07:27:38;42.70;;;25.02;;
53269;SDS011;39159;45.634;9.420;2024-02-04T07:30:03;47.35;;;26.73;;
53269;SDS011;39159;45.634;9.420;2024-02-04T07:32:29;50.03;;;27.98;;
53269;SDS011;39159;45.634;9.420;2024-02-04T07:34:55;54.33;;;29.00;;
53269;SDS011;39159;45.634;9.420;2024-02-04T07:37:20;40.67;;;25.23;;
53269;SDS011;39159;45.634;9.420;2024-02-04T07:39:46;45.00;;;25.95;;
53269;SDS011;39159;45.634;9.420;2024-02-04T07:42:11;53.25;;;27.60;;
53269;SDS011;39159;45.634;9.420;2024-02-04T07:44:36;42.72;;;25.02;;
53269;SDS011;39159;45.634;9.420;2024-02-04T07:47:02;48.92;;;27.40;;
53269;SDS011;39159;45.634;9.420;2024-02-04T07:49:27;50.80;;;28.90;;
53269;SDS011;39159;45.634;9.420;2024-02-04T07:51:53;48.17;;;27.10;;
53269;SDS011;39159;45.634;9.420;2024-02-04T07:54:19;52.78;;;27.45;;
53269;SDS011;39159;45.634;9.420;2024-02-04T07:56:44;49.67;;;28.83;;
53269;SDS011;39159;45.634;9.420;2024-02-04T07:59:09;49.42;;;28.35;;
53269;SDS011;39159;45.634;9.420;2024-02-04T08:01:35;53.95;;;29.02;;
53269;SDS011;39159;45.634;9.420;2024-02-04T08:04:01;59.08;;;30.17;;
53269;SDS011;39159;45.634;9.420;2024-02-04T08:06:27;48.80;;;29.38;;
53269;SDS011;39159;45.634;9.420;2024-02-04T08:08:52;50.90;;;29.55;;
53269;SDS011;39159;45.634;9.420;2024-02-04T08:11:18;52.97;;;28.10;;
53269;SDS011;39159;45.634;9.420;2024-02-04T08:13:44;50.83;;;27.05;;
53269;SDS011;39159;45.634;9.420;2024-02-04T08:16:09;49.47;;;26.83;;
53269;SDS011;39159;45.634;9.420;2024-02-04T08:18:35;52.90;;;27.50;;
53269;SDS011;39159;45.634;9.420;2024-02-04T08:21:00;48.90;;;27.80;;
53269;SDS011;39159;45.634;9.420;2024-02-04T08:23:26;45.15;;;26.73;;
53269;SDS011;39159;45.634;9.420;2024-02-04T08:25:51;48.00;;;27.73;;
53269;SDS011;39159;45.634;9.420;2024-02-04T08:28:17;46.58;;;26.95;;
53269;SDS011;39159;45.634;9.420;2024-02-04T08:30:42;51.95;;;28.95;;
53269;SDS011;39159;45.634;9.420;2024-02-04T08:33:07;52.55;;;29.98;;
53269;SDS011;39159;45.634;9.420;2024-02-04T08:35:33;54.60;;;31.27;;
53269;SDS011;39159;45.634;9.420;2024-02-04T08:37:59;55.78;;;31.60;;
53269;SDS011;39159;45.634;9.420;2024-02-04T08:40:24;55.20;;;31.92;;
53269;SDS011;39159;45.634;9.420;2024-02-04T08:42:50;54.22;;;32.47;;
53269;SDS011;39159;45.634;9.420;2024-02-04T08:45:15;61.05;;;36.28;;
53269;SDS011;39159;45.634;9.420;2024-02-04T08:47:40;63.70;;;37.60;;
53269;SDS011;39159;45.634;9.420;2024-02-04T08:50:06;70.03;;;39.72;;
53269;SDS011;39159;45.634;9.420;2024-02-04T08:52:32;68.70;;;39.45;;
53269;SDS011;39159;45.634;9.420;2024-02-04T08:54:57;71.47;;;42.00;;
53269;SDS011;39159;45.634;9.420;2024-02-04T08:57:24;82.15;;;45.03;;
53269;SDS011;39159;45.634;9.420;2024-02-04T08:59:50;81.13;;;44.78;;
53269;SDS011;39159;45.634;9.420;2024-02-04T09:02:15;80.00;;;45.47;;
53269;SDS011;39159;45.634;9.420;2024-02-04T09:04:41;83.40;;;48.63;;
53269;SDS011;39159;45.634;9.420;2024-02-04T09:07:07;85.90;;;49.92;;
53269;SDS011;39159;45.634;9.420;2024-02-04T09:09:32;93.63;;;55.08;;
53269;SDS011;39159;45.634;9.420;2024-02-04T09:11:58;100.20;;;54.65;;
53269;SDS011;39159;45.634;9.420;2024-02-04T09:14:23;93.75;;;55.63;;
53269;SDS011;39159;45.634;9.420;2024-02-04T09:16:49;82.60;;;48.17;;
53269;SDS011;39159;45.634;9.420;2024-02-04T09:19:14;85.78;;;49.20;;
53269;SDS011;39159;45.634;9.420;2024-02-04T09:21:39;92.18;;;52.35;;
53269;SDS011;39159;45.634;9.420;2024-02-04T09:24:05;88.68;;;50.20;;
53269;SDS011;39159;45.634;9.420;2024-02-04T09:26:30;87.63;;;49.65;;
53269;SDS011;39159;45.634;9.420;2024-02-04T09:28:56;79.07;;;46.15;;
53269;SDS011;39159;45.634;9.420;2024-02-04T09:31:21;77.20;;;45.40;;
53269;SDS011;39159;45.634;9.420;2024-02-04T09:33:46;74.63;;;45.78;;
53269;SDS011;39159;45.634;9.420;2024-02-04T09:36:12;79.90;;;46.78;;
53269;SDS011;39159;45.634;9.420;2024-02-04T09:38:37;73.97;;;43.92;;
53269;SDS011;39159;45.634;9.420;2024-02-04T09:41:03;69.25;;;41.80;;
53269;SDS011;39159;45.634;9.420;2024-02-04T09:43:30;57.45;;;34.75;;
53269;SDS011;39159;45.634;9.420;2024-02-04T09:45:57;51.50;;;31.08;;
53269;SDS011;39159;45.634;9.420;2024-02-04T09:48:24;50.58;;;32.53;;
53269;SDS011;39159;45.634;9.420;2024-02-04T09:50:51;51.45;;;32.90;;
53269;SDS011;39159;45.634;9.420;2024-02-04T09:53:18;49.72;;;32.08;;
53269;SDS011;39159;45.634;9.420;2024-02-04T09:55:51;52.78;;;33.80;;
53269;SDS011;39159;45.634;9.420;2024-02-04T09:58:17;50.17;;;31.63;;
53269;SDS011;39159;45.634;9.420;2024-02-04T10:00:43;51.85;;;32.83;;
53269;SDS011;39159;45.634;9.420;2024-02-04T10:03:12;54.25;;;34.13;;
53269;SDS011;39159;45.634;9.420;2024-02-04T10:05:37;51.55;;;34.15;;
53269;SDS011;39159;45.634;9.420;2024-02-04T10:08:03;54.22;;;33.65;;
53269;SDS011;39159;45.634;9.420;2024-02-04T10:10:28;54.10;;;36.17;;
53269;SDS011;39159;45.634;9.420;2024-02-04T10:12:55;55.85;;;31.83;;
53269;SDS011;39159;45.634;9.420;2024-02-04T10:15:20;56.80;;;34.45;;
53269;SDS011;39159;45.634;9.420;2024-02-04T10:17:46;60.90;;;37.47;;
53269;SDS011;39159;45.634;9.420;2024-02-04T10:20:11;66.07;;;41.33;;
53269;SDS011;39159;45.634;9.420;2024-02-04T10:22:37;63.75;;;40.97;;
53269;SDS011;39159;45.634;9.420;2024-02-04T10:25:09;68.82;;;42.20;;
53269;SDS011;39159;45.634;9.420;2024-02-04T10:27:37;69.32;;;42.35;;
53269;SDS011;39159;45.634;9.420;2024-02-04T10:30:03;63.08;;;40.58;;
53269;SDS011;39159;45.634;9.420;2024-02-04T10:32:29;66.18;;;41.60;;
53269;SDS011;39159;45.634;9.420;2024-02-04T10:34:57;59.33;;;38.67;;
53269;SDS011;39159;45.634;9.420;2024-02-04T10:37:23;54.70;;;35.45;;
53269;SDS011;39159;45.634;9.420;2024-02-04T10:39:49;53.25;;;34.75;;
53269;SDS011;39159;45.634;9.420;2024-02-04T10:42:14;48.75;;;34.60;;
53269;SDS011;39159;45.634;9.420;2024-02-04T10:44:42;56.47;;;34.75;;
53269;SDS011;39159;45.634;9.420;2024-02-04T10:47:12;55.58;;;36.30;;
53269;SDS011;39159;45.634;9.420;2024-02-04T10:49:43;48.75;;;33.00;;
53269;SDS011;39159;45.634;9.420;2024-02-04T10:52:14;49.92;;;31.85;;
53269;SDS011;39159;45.634;9.420;2024-02-04T10:54:42;49.63;;;30.75;;
53269;SDS011;39159;45.634;9.420;2024-02-04T10:57:10;52.40;;;31.20;;
53269;SDS011;39159;45.634;9.420;2024-02-04T10:59:38;58.97;;;37.58;;
53269;SDS011;39159;45.634;9.420;2024-02-04T11:02:05;42.22;;;29.67;;
53269;SDS011;39159;45.634;9.420;2024-02-04T11:04:31;33.97;;;24.48;;
53269;SDS011;39159;45.634;9.420;2024-02-04T11:06:59;35.42;;;25.38;;
53269;SDS011;39159;45.634;9.420;2024-02-04T11:09:26;35.30;;;24.38;;
53269;SDS011;39159;45.634;9.420;2024-02-04T11:11:52;35.75;;;23.17;;
53269;SDS011;39159;45.634;9.420;2024-02-04T11:14:20;34.00;;;21.80;;
53269;SDS011;39159;45.634;9.420;2024-02-04T11:20:12;25.85;;;18.00;;
53269;SDS011;39159;45.634;9.420;2024-02-04T11:28:20;33.72;;;20.00;;
53269;SDS011;39159;45.634;9.420;2024-02-04T11:30:47;26.25;;;20.52;;
53269;SDS011;39159;45.634;9.420;2024-02-04T11:33:17;32.53;;;21.27;;
53269;SDS011;39159;45.634;9.420;2024-02-04T11:35:44;28.13;;;21.05;;
53269;SDS011;39159;45.634;9.420;2024-02-04T11:38:10;29.63;;;20.95;;
53269;SDS011;39159;45.634;9.420;2024-02-04T11:40:39;30.05;;;20.65;;
53269;SDS011;39159;45.634;9.420;2024-02-04T11:43:09;29.33;;;21.00;;
53269;SDS011;39159;45.634;9.420;2024-02-04T11:45:39;34.90;;;20.90;;
53269;SDS011;39159;45.634;9.420;2024-02-04T11:48:12;29.90;;;20.92;;
53269;SDS011;39159;45.634;9.420;2024-02-04T11:50:37;32.03;;;19.92;;
53269;SDS011;39159;45.634;9.420;2024-02-04T11:53:05;26.55;;;20.23;;
53269;SDS011;39159;45.634;9.420;2024-02-04T11:55:31;28.02;;;18.85;;
53269;SDS011;39159;45.634;9.420;2024-02-04T11:57:59;22.70;;;17.58;;
53269;SDS011;39159;45.634;9.420;2024-02-04T12:00:25;27.58;;;17.58;;
53269;SDS011;39159;45.634;9.420;2024-02-04T12:03:03;25.27;;;18.50;;
53269;SDS011;39159;45.634;9.420;2024-02-04T12:05:33;26.65;;;18.45;;
53269;SDS011;39159;45.634;9.420;2024-02-04T12:08:01;27.13;;;19.50;;
53269;SDS011;39159;45.634;9.420;2024-02-04T12:10:28;25.02;;;19.25;;
53269;SDS011;39159;45.634;9.420;2024-02-04T12:12:55;29.35;;;20.70;;
53269;SDS011;39159;45.634;9.420;2024-02-04T12:15:21;27.08;;;19.63;;
53269;SDS011;39159;45.634;9.420;2024-02-04T12:17:46;29.45;;;21.17;;
53269;SDS011;39159;45.634;9.420;2024-02-04T12:20:12;31.63;;;21.05;;
53269;SDS011;39159;45.634;9.420;2024-02-04T12:22:37;27.23;;;20.77;;
53269;SDS011;39159;45.634;9.420;2024-02-04T12:25:03;27.77;;;20.98;;
53269;SDS011;39159;45.634;9.420;2024-02-04T12:27:29;27.42;;;20.38;;
53269;SDS011;39159;45.634;9.420;2024-02-04T12:29:54;31.83;;;22.88;;
53269;SDS011;39159;45.634;9.420;2024-02-04T12:32:20;29.67;;;21.95;;
53269;SDS011;39159;45.634;9.420;2024-02-04T12:34:49;36.80;;;24.20;;
53269;SDS011;39159;45.634;9.420;2024-02-04T12:37:19;32.97;;;24.23;;
53269;SDS011;39159;45.634;9.420;2024-02-04T12:39:45;32.72;;;24.30;;
53269;SDS011;39159;45.634;9.420;2024-02-04T12:42:10;58.78;;;27.73;;
53269;SDS011;39159;45.634;9.420;2024-02-04T12:44:43;35.53;;;23.92;;
53269;SDS011;39159;45.634;9.420;2024-02-04T12:47:09;36.70;;;25.25;;
53269;SDS011;39159;45.634;9.420;2024-02-04T12:49:34;34.85;;;24.75;;
53269;SDS011;39159;45.634;9.420;2024-02-04T12:52:06;36.95;;;26.10;;
53269;SDS011;39159;45.634;9.420;2024-02-04T12:54:42;37.15;;;25.42;;
53269;SDS011;39159;45.634;9.420;2024-02-04T12:57:08;38.10;;;25.73;;
53269;SDS011;39159;45.634;9.420;2024-02-04T12:59:36;36.17;;;24.85;;
53269;SDS011;39159;45.634;9.420;2024-02-04T13:02:04;38.65;;;25.52;;
53269;SDS011;39159;45.634;9.420;2024-02-04T13:04:37;34.85;;;22.17;;
53269;SDS011;39159;45.634;9.420;2024-02-04T13:07:07;31.55;;;22.23;;
53269;SDS011;39159;45.634;9.420;2024-02-04T13:09:38;29.98;;;21.08;;
53269;SDS011;39159;45.634;9.420;2024-02-04T13:12:08;29.05;;;21.02;;
53269;SDS011;39159;45.634;9.420;2024-02-04T13:14:35;27.40;;;19.30;;
53269;SDS011;39159;45.634;9.420;2024-02-04T13:17:04;30.30;;;20.38;;
53269;SDS011;39159;45.634;9.420;2024-02-04T13:19:33;31.23;;;20.65;;
53269;SDS011;39159;45.634;9.420;2024-02-04T13:21:59;32.70;;;20.90;;
53269;SDS011;39159;45.634;9.420;2024-02-04T13:24:25;27.00;;;19.25;;
53269;SDS011;39159;45.634;9.420;2024-02-04T13:26:50;27.42;;;20.25;;
53269;SDS011;39159;45.634;9.420;2024-02-04T13:29:16;29.45;;;19.95;;
53269;SDS011;39159;45.634;9.420;2024-02-04T13:31:41;27.02;;;20.13;;
53269;SDS011;39159;45.634;9.420;2024-02-04T13:34:07;27.25;;;19.83;;
53269;SDS011;39159;45.634;9.420;2024-02-04T13:36:32;31.63;;;20.25;;
53269;SDS011;39159;45.634;9.420;2024-02-04T13:38:58;30.42;;;21.38;;
53269;SDS011;39159;45.634;9.420;2024-02-04T13:41:23;34.47;;;21.60;;
53269;SDS011;39159;45.634;9.420;2024-02-04T13:43:48;29.10;;;21.23;;
53269;SDS011;39159;45.634;9.420;2024-02-04T13:46:15;32.33;;;21.88;;
53269;SDS011;39159;45.634;9.420;2024-02-04T13:48:40;32.05;;;22.73;;
53269;SDS011;39159;45.634;9.420;2024-02-04T13:51:06;33.53;;;22.48;;
53269;SDS011;39159;45.634;9.420;2024-02-04T13:53:32;34.13;;;22.33;;
53269;SDS011;39159;45.634;9.420;2024-02-04T13:55:59;34.45;;;22.38;;
53269;SDS011;39159;45.634;9.420;2024-02-04T13:58:24;33.33;;;22.95;;
53269;SDS011;39159;45.634;9.420;2024-02-04T14:00:51;32.10;;;22.85;;
53269;SDS011;39159;45.634;9.420;2024-02-04T14:03:16;34.47;;;22.95;;
53269;SDS011;39159;45.634;9.420;2024-02-04T14:05:42;32.15;;;23.88;;
53269;SDS011;39159;45.634;9.420;2024-02-04T14:08:07;27.48;;;21.60;;
53269;SDS011;39159;45.634;9.420;2024-02-04T14:10:33;33.45;;;23.67;;
53269;SDS011;39159;45.634;9.420;2024-02-04T14:12:58;32.80;;;22.90;;
53269;SDS011;39159;45.634;9.420;2024-02-04T14:15:24;36.92;;;24.63;;
53269;SDS011;39159;45.634;9.420;2024-02-04T14:17:49;33.10;;;23.10;;
53269;SDS011;39159;45.634;9.420;2024-02-04T14:20:15;32.25;;;21.88;;
53269;SDS011;39159;45.634;9.420;2024-02-04T14:22:40;30.05;;;22.02;;
53269;SDS011;39159;45.634;9.420;2024-02-04T14:25:06;32.47;;;23.25;;
53269;SDS011;39159;45.634;9.420;2024-02-04T14:27:31;36.58;;;24.33;;
53269;SDS011;39159;45.634;9.420;2024-02-04T14:29:57;36.58;;;24.67;;